Franklin Reinauer — WCW8832 — position and weather

sailwx.info

Track history (hours):
 
Tides and Currents Weather Stations Pressure Air Temp Water Temp Dewpoint Dewpoint Depression Visibility Wind Speed Wind Dir Waves Ship Positions

Franklin Reinauer

Owner: REINAUER TRANSPORTATION CO.LLC., STATEN ISLAND, NY. More information available from US FCC via Universal Licensing System and Coast Guard Vessel Documentation Center.

Last reported at 2018-Feb-25 15:00 UTC. Time now 2018-Feb-25 15:30 UTC.
Position N 40°40' W 074°01'.

Length 24 m; draft 4 m.

Type: Tug. MMSI: 366725230.

Date/timePositionNaut miles runAvg speedWind from/ knotsBaromVisibWave heightAir tempDewpointWater temp
2018-Feb-25 15:00N 40°40' W 074°01'0 0.0
2018-Feb-25 14:30N 40°40' W 074°01'0 0.3
2018-Feb-25 14:00N 40°40' W 074°01'0 0.3
2018-Feb-25 13:30N 40°40' W 074°01'0 0.3
2018-Feb-25 13:00N 40°40' W 074°01'0 0.3
2018-Feb-25 12:30N 40°40' W 074°01'0 0.0
2018-Feb-25 12:00N 40°40' W 074°01'0 0.1
2018-Feb-25 11:30N 40°40' W 074°01'0 0.1
2018-Feb-25 10:59N 40°40' W 074°01'0 0.0
2018-Feb-25 10:29N 40°40' W 074°01'0 0.0
2018-Feb-25 09:59N 40°40' W 074°01'0 0.3
2018-Feb-25 09:30N 40°40' W 074°01'0 0.0
2018-Feb-25 09:00N 40°40' W 074°01'0 0.0
2018-Feb-25 08:30N 40°40' W 074°01'0 0.2
2018-Feb-25 07:58N 40°40' W 074°01'2 3.4
2018-Feb-25 07:30N 40°40' W 074°03'4 7.2
2018-Feb-25 07:00N 40°39' W 074°07'4 6.9
2018-Feb-25 06:30N 40°38' W 074°12'4 8.3
2018-Feb-25 05:59N 40°34' W 074°13'1 0.2
2018-Feb-24 23:46N 40°33' W 074°14'0 0.0
2018-Feb-24 23:28N 40°33' W 074°14'0 0.0
2018-Feb-24 20:36N 40°33' W 074°14'0 0.0
2018-Feb-24 20:27N 40°33' W 074°14'0 0.0
2018-Feb-24 19:58N 40°33' W 074°14'0 0.0
2018-Feb-24 19:27N 40°33' W 074°14'0 0.0
2018-Feb-24 18:58N 40°33' W 074°14'0 0.0
2018-Feb-24 18:30N 40°33' W 074°14'0 0.0
2018-Feb-24 17:58N 40°33' W 074°14'0 0.0
2018-Feb-24 17:29N 40°33' W 074°14'0 0.0
2018-Feb-24 16:58N 40°33' W 074°14'0 0.0
2018-Feb-24 16:27N 40°33' W 074°14'0 0.3
2018-Feb-24 15:59N 40°33' W 074°15'1 1.5
2018-Feb-24 15:29N 40°33' W 074°15'0 0.7
2018-Feb-24 14:59N 40°32' W 074°15'0 0.1
2018-Feb-24 14:30N 40°32' W 074°15'0 0.1
2018-Feb-24 13:52N 40°32' W 074°15'0 0.4
2018-Feb-24 13:23N 40°33' W 074°15'0 1.2
2018-Feb-24 12:59N 40°33' W 074°15'3 5.7
2018-Feb-24 12:30N 40°35' W 074°13'1 0.3
2018-Feb-24 10:36N 40°36' W 074°12'0 0.0
2018-Feb-24 09:12N 40°36' W 074°12'0 0.0
2018-Feb-24 09:00N 40°36' W 074°12'0 0.0
2018-Feb-24 08:30N 40°36' W 074°12'0 0.0
2018-Feb-24 08:00N 40°36' W 074°12'0 0.0
2018-Feb-24 07:30N 40°36' W 074°12'0 0.0
2018-Feb-24 07:00N 40°36' W 074°12'0 0.0
2018-Feb-24 06:30N 40°36' W 074°12'0 0.0
2018-Feb-24 06:00N 40°36' W 074°12'0 0.0
2018-Feb-24 05:30N 40°36' W 074°12'0 0.0
2018-Feb-24 05:00N 40°36' W 074°12'0 0.0
2018-Feb-24 04:30N 40°36' W 074°12'0 0.0
2018-Feb-24 04:00N 40°36' W 074°12'0 0.0
2018-Feb-24 03:30N 40°36' W 074°12'0 0.2
2018-Feb-24 03:00N 40°36' W 074°12'4 7.3
2018-Feb-24 02:30N 40°39' W 074°10'2 4.5
2018-Feb-24 02:00N 40°39' W 074°07'0 0.0
2018-Feb-24 01:30N 40°39' W 074°07'0 0.0
2018-Feb-24 01:00N 40°39' W 074°07'1 1.6
2018-Feb-24 00:30N 40°39' W 074°07'0 0.2
2018-Feb-23 23:16N 40°38' W 074°08'2 6.1
2018-Feb-23 23:00N 40°39' W 074°10'3 6.8
2018-Feb-23 22:30N 40°36' W 074°12'0 0.2
2018-Feb-23 22:00N 40°36' W 074°12'0 0.0
2018-Feb-23 21:30N 40°36' W 074°12'0 0.0
2018-Feb-23 21:00N 40°36' W 074°12'0 0.0
2018-Feb-23 20:30N 40°36' W 074°12'0 0.0
2018-Feb-23 20:00N 40°36' W 074°12'1 1.3
2018-Feb-23 19:30N 40°35' W 074°13'0 0.4
2018-Feb-23 18:59N 40°35' W 074°12'4 7.5
2018-Feb-23 18:30N 40°39' W 074°11'5 8.9
2018-Feb-23 18:00N 40°39' W 074°05'3 6.8
2018-Feb-23 17:30N 40°40' W 074°01'0 0.1
2018-Feb-23 17:00N 40°40' W 074°01'1 1.4
2018-Feb-23 16:30N 40°40' W 074°02'0 0.2
2018-Feb-23 16:00N 40°40' W 074°02'1 1.6
2018-Feb-23 15:30N 40°40' W 074°01'0 0.0
2018-Feb-23 15:00N 40°40' W 074°01'0 0.0
2018-Feb-23 14:30N 40°40' W 074°01'0 0.0
2018-Feb-23 14:00N 40°40' W 074°01'0 0.0
2018-Feb-23 13:30N 40°40' W 074°01'0 0.0
2018-Feb-23 13:00N 40°40' W 074°01'0 0.0
2018-Feb-23 12:30N 40°40' W 074°01'0 0.0
2018-Feb-23 12:00N 40°40' W 074°01'0 0.0
2018-Feb-23 11:30N 40°40' W 074°01'0 0.0
2018-Feb-23 11:00N 40°40' W 074°01'0 0.0
2018-Feb-23 10:30N 40°40' W 074°01'0 0.0
2018-Feb-23 10:00N 40°40' W 074°01'0 0.0
2018-Feb-23 09:30N 40°40' W 074°01'0 0.0
2018-Feb-23 09:00N 40°40' W 074°01'0 0.0
2018-Feb-23 08:30N 40°40' W 074°01'0 0.0
2018-Feb-23 08:00N 40°40' W 074°01'0 0.0
2018-Feb-23 07:30N 40°40' W 074°01'0 0.0
2018-Feb-23 07:00N 40°40' W 074°01'0 0.0
2018-Feb-23 06:30N 40°40' W 074°01'0 0.0
2018-Feb-23 06:00N 40°40' W 074°01'0 0.0
2018-Feb-23 05:30N 40°40' W 074°01'0 0.0
2018-Feb-23 05:00N 40°40' W 074°01'0 0.0
2018-Feb-23 04:30N 40°40' W 074°01'0 0.0
2018-Feb-23 04:00N 40°40' W 074°01'0 0.3
2018-Feb-23 03:30N 40°40' W 074°01'1 1.2
2018-Feb-23 02:59N 40°40' W 074°00'0 0.9
2018-Feb-23 02:28N 40°40' W 074°01'0 0.0
2018-Feb-23 01:58N 40°40' W 074°01'0 0.0
2018-Feb-23 01:28N 40°40' W 074°01'0 0.0
2018-Feb-23 00:58N 40°40' W 074°01'0 0.0
2018-Feb-23 00:28N 40°40' W 074°01'0 0.0
2018-Feb-22 23:58N 40°40' W 074°01'0 0.0
2018-Feb-22 23:28N 40°40' W 074°01'0 0.0
2018-Feb-22 22:58N 40°40' W 074°01'0 0.1
2018-Feb-22 22:29N 40°40' W 074°01'1 1.3
2018-Feb-22 22:00N 40°40' W 074°02'3 6.7
2018-Feb-22 21:30N 40°39' W 074°06'2 3.0
2018-Feb-22 20:58N 40°38' W 074°08'0 0.1
2018-Feb-22 20:28N 40°38' W 074°08'0 0.0
2018-Feb-22 19:58N 40°38' W 074°08'0 0.0
2018-Feb-22 19:28N 40°38' W 074°08'0 0.0
2018-Feb-22 18:58N 40°38' W 074°08'0 0.0
2018-Feb-22 18:28N 40°38' W 074°08'0 0.0
2018-Feb-22 17:55N 40°38' W 074°08'0 0.0
2018-Feb-22 17:25N 40°38' W 074°08'0 0.0
2018-Feb-22 16:58N 40°38' W 074°08'0 0.0
2018-Feb-22 16:28N 40°38' W 074°08'0 0.0
2018-Feb-22 15:58N 40°38' W 074°08'0 0.1
2018-Feb-22 14:46N 40°38' W 074°08'0 0.0
2018-Feb-22 14:07N 40°38' W 074°08'0 0.0
2018-Feb-22 13:37N 40°38' W 074°08'0 0.1
2018-Feb-22 13:30N 40°38' W 074°08'0 0.1
2018-Feb-22 13:00N 40°38' W 074°08'3 6.2
2018-Feb-22 12:30N 40°39' W 074°04'2 4.7
2018-Feb-22 12:00N 40°40' W 074°01'0 0.0
2018-Feb-22 11:30N 40°40' W 074°01'0 0.0
2018-Feb-22 11:00N 40°40' W 074°01'0 0.0
2018-Feb-22 10:30N 40°40' W 074°01'0 0.0
2018-Feb-22 10:00N 40°40' W 074°01'0 0.0
2018-Feb-22 09:30N 40°40' W 074°01'0 0.0
2018-Feb-22 09:00N 40°40' W 074°01'0 0.0
2018-Feb-22 08:30N 40°40' W 074°01'0 0.0
2018-Feb-22 08:00N 40°40' W 074°01'0 0.0
2018-Feb-22 07:30N 40°40' W 074°01'0 0.0
2018-Feb-22 07:00N 40°40' W 074°01'0 0.0
2018-Feb-22 06:30N 40°40' W 074°01'0 0.0
2018-Feb-22 06:00N 40°40' W 074°01'4 7.5
2018-Feb-22 05:30N 40°39' W 074°06'1 1.3
2018-Feb-22 05:00N 40°39' W 074°07'1 1.3
2018-Feb-22 04:30N 40°39' W 074°07'0 0.7
2018-Feb-22 03:58N 40°38' W 074°08'0 0.0
2018-Feb-22 03:28N 40°38' W 074°08'0 0.0
2018-Feb-22 02:58N 40°38' W 074°08'0 0.2
2018-Feb-22 02:31N 40°38' W 074°08'2 4.8
2018-Feb-22 02:00N 40°39' W 074°05'3 6.0
2018-Feb-22 01:30N 40°40' W 074°01'0 0.2
2018-Feb-22 01:00N 40°40' W 074°01'0 0.5
2018-Feb-22 00:31N 40°40' W 074°01'0 0.4
2018-Feb-21 23:59N 40°40' W 074°01'0 0.1
2018-Feb-21 23:29N 40°40' W 074°01'0 0.0
2018-Feb-21 23:01N 40°40' W 074°01'0 0.0
2018-Feb-21 22:31N 40°40' W 074°01'0 0.0
2018-Feb-21 22:01N 40°40' W 074°01'0 0.0
2018-Feb-21 21:31N 40°40' W 074°01'0 0.0
2018-Feb-21 21:01N 40°40' W 074°01'0 0.0
2018-Feb-21 20:31N 40°40' W 074°01'0 0.0
2018-Feb-21 20:00N 40°40' W 074°01'0 0.0
2018-Feb-21 19:31N 40°40' W 074°01'0 0.0
2018-Feb-21 19:00N 40°40' W 074°01'0 0.0
2018-Feb-21 18:31N 40°40' W 074°01'0 0.1
2018-Feb-21 18:00N 40°40' W 074°01'4 7.7
2018-Feb-21 17:30N 40°39' W 074°06'1 1.3
2018-Feb-21 16:59N 40°39' W 074°07'1 2.0
2018-Feb-21 16:30N 40°38' W 074°08'0 0.1
2018-Feb-21 16:00N 40°38' W 074°08'0 0.0
2018-Feb-21 15:27N 40°38' W 074°08'0 0.0
2018-Feb-21 14:50N 40°38' W 074°08'0 0.0
2018-Feb-21 14:25N 40°38' W 074°08'0 0.0
2018-Feb-21 14:01N 40°38' W 074°08'0 0.0
2018-Feb-21 13:30N 40°38' W 074°08'0 0.0
2018-Feb-21 12:59N 40°38' W 074°08'0 0.0
2018-Feb-21 12:28N 40°38' W 074°08'2 3.9
2018-Feb-21 12:01N 40°39' W 074°05'0 0.8
2018-Feb-21 11:30N 40°39' W 074°05'0 0.5
2018-Feb-21 11:00N 40°39' W 074°05'0 0.4
2018-Feb-21 10:30N 40°39' W 074°05'2 4.4
2018-Feb-21 10:01N 40°38' W 074°08'0 0.0
2018-Feb-21 09:30N 40°38' W 074°08'0 0.0
2018-Feb-21 08:59N 40°38' W 074°08'0 0.0
2018-Feb-21 08:30N 40°38' W 074°08'0 0.0
2018-Feb-21 08:00N 40°38' W 074°08'0 0.0
2018-Feb-21 07:30N 40°38' W 074°08'0 0.0
2018-Feb-21 06:59N 40°38' W 074°08'0 0.0
2018-Feb-21 06:30N 40°38' W 074°08'0 0.0
2018-Feb-21 06:00N 40°38' W 074°08'0 0.0
2018-Feb-21 05:30N 40°38' W 074°08'1 2.2
2018-Feb-21 05:00N 40°39' W 074°07'0 0.2
2018-Feb-21 04:30N 40°39' W 074°07'0 0.1
2018-Feb-21 04:00N 40°39' W 074°07'1 1.7
2018-Feb-21 03:25N 40°38' W 074°08'0 0.0
2018-Feb-21 02:55N 40°38' W 074°08'0 0.0
2018-Feb-21 01:46N 40°38' W 074°08'0 0.0
2018-Feb-21 01:28N 40°38' W 074°08'0 0.0
2018-Feb-21 00:58N 40°38' W 074°08'0 0.0
2018-Feb-21 00:16N 40°38' W 074°08'0 0.0
2018-Feb-20 23:58N 40°38' W 074°08'0 0.0
2018-Feb-20 23:27N 40°38' W 074°08'1 2.1
2018-Feb-20 23:00N 40°39' W 074°07'0 0.4
2018-Feb-20 22:30N 40°39' W 074°07'1 1.5
2018-Feb-20 21:59N 40°38' W 074°08'0 0.0
2018-Feb-20 21:30N 40°38' W 074°08'0 0.0
2018-Feb-20 20:58N 40°38' W 074°08'0 0.0
2018-Feb-20 20:30N 40°38' W 074°08'0 0.0
2018-Feb-20 20:00N 40°38' W 074°08'0 0.0
2018-Feb-20 19:29N 40°38' W 074°08'0 0.0
2018-Feb-20 19:00N 40°38' W 074°08'4 6.8
2018-Feb-20 18:29N 40°37' W 074°12'1 1.5
2018-Feb-20 17:55N 40°37' W 074°12'1 1.8
2018-Feb-20 17:28N 40°36' W 074°12'0 0.0
2018-Feb-20 16:39N 40°36' W 074°12'1 6.4
2018-Feb-20 16:30N 40°37' W 074°12'3 6.5
2018-Feb-20 15:59N 40°39' W 074°09'4 7.6
2018-Feb-20 15:31N 40°42' W 074°07'1 1.0
2018-Feb-20 15:00N 40°43' W 074°07'0 0.1
2018-Feb-20 14:29N 40°43' W 074°07'0 0.2
2018-Feb-20 14:00N 40°43' W 074°07'4 7.5
2018-Feb-20 13:28N 40°39' W 074°09'1 3.1
2018-Feb-20 13:00N 40°39' W 074°07'0 0.2
2018-Feb-20 12:30N 40°39' W 074°07'4 7.8
2018-Feb-20 12:00N 40°40' W 074°02'1 1.9
2018-Feb-20 11:30N 40°40' W 074°01'0 0.0
2018-Feb-20 11:00N 40°40' W 074°01'0 0.0
2018-Feb-20 10:30N 40°40' W 074°01'0 0.0
2018-Feb-20 10:00N 40°40' W 074°01'0 0.0
2018-Feb-20 09:30N 40°40' W 074°01'0 0.0
2018-Feb-20 09:00N 40°40' W 074°01'0 0.0
2018-Feb-20 08:30N 40°40' W 074°01'0 0.0
2018-Feb-20 08:00N 40°40' W 074°01'0 0.0
2018-Feb-20 07:29N 40°40' W 074°01'0 0.0
2018-Feb-20 07:00N 40°40' W 074°01'0 0.0
2018-Feb-20 06:30N 40°40' W 074°01'0 0.0
2018-Feb-20 06:00N 40°40' W 074°01'0 0.0
2018-Feb-20 05:30N 40°40' W 074°01'0 0.0
2018-Feb-20 05:00N 40°40' W 074°01'0 0.0
2018-Feb-20 04:30N 40°40' W 074°01'0 0.0
2018-Feb-20 04:00N 40°40' W 074°01'0 0.0
2018-Feb-20 03:30N 40°40' W 074°01'0 0.0
2018-Feb-20 03:00N 40°40' W 074°01'0 0.0
2018-Feb-20 02:30N 40°40' W 074°01'0 0.0
2018-Feb-20 02:00N 40°40' W 074°01'0 0.0
2018-Feb-20 01:30N 40°40' W 074°01'0 0.0
2018-Feb-20 01:00N 40°40' W 074°01'0 0.0
2018-Feb-20 00:30N 40°40' W 074°01'0 0.0
2018-Feb-19 23:59N 40°40' W 074°01'0 0.0
2018-Feb-19 23:29N 40°40' W 074°01'0 0.3
2018-Feb-19 23:00N 40°40' W 074°01'0 0.0
2018-Feb-19 22:30N 40°40' W 074°01'0 0.0
2018-Feb-19 22:00N 40°40' W 074°01'0 0.0
2018-Feb-19 21:30N 40°40' W 074°01'0 0.0
2018-Feb-19 21:00N 40°40' W 074°01'0 0.0
2018-Feb-19 20:30N 40°40' W 074°01'0 0.0
2018-Feb-19 20:00N 40°40' W 074°01'0 0.0
2018-Feb-19 19:27N 40°40' W 074°01'0 0.0
2018-Feb-19 19:00N 40°40' W 074°01'0 0.0
2018-Feb-19 18:30N 40°40' W 074°01'0 0.0
2018-Feb-19 18:00N 40°40' W 074°01'0 0.0
2018-Feb-19 17:30N 40°40' W 074°01'0 0.0
2018-Feb-19 17:00N 40°40' W 074°01'0 0.0
2018-Feb-19 16:30N 40°40' W 074°01'0 0.0
2018-Feb-19 16:00N 40°40' W 074°01'0 0.0
2018-Feb-19 15:30N 40°40' W 074°01'0 0.0
2018-Feb-19 15:00N 40°40' W 074°01'0 0.0
2018-Feb-19 14:30N 40°40' W 074°01'0 0.0
2018-Feb-19 14:00N 40°40' W 074°01'0 0.0
2018-Feb-19 13:30N 40°40' W 074°01'0 0.0
2018-Feb-19 13:00N 40°40' W 074°01'0 0.0
2018-Feb-19 12:30N 40°40' W 074°01'0 0.0
2018-Feb-19 12:00N 40°40' W 074°01'0 0.0
2018-Feb-19 11:30N 40°40' W 074°01'0 0.0
2018-Feb-19 11:00N 40°40' W 074°01'0 0.3
2018-Feb-19 10:30N 40°40' W 074°01'0 0.4
2018-Feb-19 10:00N 40°40' W 074°01'0 0.2
2018-Feb-19 09:30N 40°40' W 074°01'0 0.0
2018-Feb-19 09:00N 40°40' W 074°01'0 0.2
2018-Feb-19 08:30N 40°40' W 074°01'3 5.7
2018-Feb-19 07:59N 40°43' W 073°59'611.9
2018-Feb-19 07:30N 40°48' W 073°55'510.0
2018-Feb-19 07:00N 40°48' W 073°48'3 0.1
2018-Feb-17 23:46N 40°51' W 073°46'2 7.7
2018-Feb-17 23:28N 40°48' W 073°47'4 7.8
2018-Feb-17 23:00N 40°48' W 073°51'4 7.6
2018-Feb-17 22:30N 40°47' W 073°56'3 6.9
2018-Feb-17 22:00N 40°44' W 073°58'3 6.2
2018-Feb-17 21:30N 40°41' W 074°01'3 6.1
2018-Feb-17 21:00N 40°39' W 074°04'2 4.1
2018-Feb-17 20:29N 40°39' W 074°07'1 1.4
2018-Feb-17 19:58N 40°38' W 074°08'0 0.0
2018-Feb-17 19:30N 40°38' W 074°08'2 3.4
2018-Feb-17 19:00N 40°39' W 074°06'4 7.9
2018-Feb-17 18:30N 40°40' W 074°01'0 0.4
2018-Feb-17 18:00N 40°40' W 074°01'0 0.5
2018-Feb-17 17:30N 40°40' W 074°01'0 0.0
2018-Feb-17 17:00N 40°40' W 074°01'0 0.0
2018-Feb-17 16:30N 40°40' W 074°01'0 0.4
2018-Feb-17 16:00N 40°40' W 074°01'3 5.2
2018-Feb-17 15:30N 40°39' W 074°04'3 5.4
2018-Feb-17 15:00N 40°38' W 074°08'0 0.1
2018-Feb-17 14:30N 40°38' W 074°08'0 0.0
2018-Feb-17 14:00N 40°38' W 074°08'0 0.0
2018-Feb-17 13:30N 40°38' W 074°08'0 0.0
2018-Feb-17 13:00N 40°38' W 074°08'0 0.0
2018-Feb-17 12:29N 40°38' W 074°08'0 0.0
2018-Feb-17 12:00N 40°38' W 074°08'0 0.0
2018-Feb-17 11:22N 40°38' W 074°08'0 0.0
2018-Feb-17 10:59N 40°38' W 074°08'0 0.0
2018-Feb-17 10:27N 40°38' W 074°08'0 0.0
2018-Feb-17 10:00N 40°38' W 074°08'0 0.0
2018-Feb-17 09:30N 40°38' W 074°08'0 0.0
2018-Feb-17 09:00N 40°38' W 074°08'0 0.0
2018-Feb-17 08:30N 40°38' W 074°08'0 0.6
2018-Feb-17 08:00N 40°39' W 074°07'0 0.7
2018-Feb-17 07:29N 40°39' W 074°07'0 0.0
2018-Feb-17 06:57N 40°39' W 074°07'1 3.0
2018-Feb-17 06:30N 40°39' W 074°05'3 6.8
2018-Feb-17 06:00N 40°40' W 074°01'0 0.0
2018-Feb-17 05:30N 40°40' W 074°01'0 0.0
2018-Feb-17 05:00N 40°40' W 074°01'0 0.0
2018-Feb-17 04:30N 40°40' W 074°01'0 0.0
2018-Feb-17 04:00N 40°40' W 074°01'0 0.0
2018-Feb-17 03:30N 40°40' W 074°01'0 0.0
2018-Feb-17 03:00N 40°40' W 074°01'1 1.0
2018-Feb-17 02:30N 40°40' W 074°00'1 1.1
2018-Feb-17 02:00N 40°40' W 074°01'3 6.3
2018-Feb-17 01:30N 40°39' W 074°05'0 0.8
2018-Feb-17 01:00N 40°39' W 074°05'3 5.8
2018-Feb-17 00:31N 40°40' W 074°01'4 7.9
2018-Feb-17 00:00N 40°39' W 074°06'4 8.5
2018-Feb-16 23:30N 40°38' W 074°12'6 2.6
2018-Feb-16 21:02N 40°33' W 074°15'0 0.0
2018-Feb-16 21:00N 40°33' W 074°15'0 0.0
2018-Feb-16 20:30N 40°33' W 074°15'0 0.0
2018-Feb-16 20:00N 40°33' W 074°15'0 0.0
2018-Feb-16 19:28N 40°33' W 074°15'0 0.0
2018-Feb-16 18:59N 40°33' W 074°15'1 0.5
2018-Feb-16 17:23N 40°33' W 074°14'0 0.0
2018-Feb-16 16:46N 40°33' W 074°14'0 0.0
2018-Feb-16 16:10N 40°33' W 074°14'0 0.0
2018-Feb-16 15:58N 40°33' W 074°14'1 1.0
2018-Feb-16 14:58N 40°33' W 074°15'0 0.5
2018-Feb-16 14:28N 40°33' W 074°15'0 0.9
2018-Feb-16 14:00N 40°33' W 074°15'0 0.0
2018-Feb-16 13:30N 40°33' W 074°15'0 0.0
2018-Feb-16 12:57N 40°33' W 074°15'0 0.0
2018-Feb-16 12:29N 40°33' W 074°15'0 0.0
2018-Feb-16 11:27N 40°33' W 074°15'1 0.9
2018-Feb-16 10:27N 40°32' W 074°15'3 6.5
2018-Feb-16 09:59N 40°35' W 074°13'1 1.4
2018-Feb-16 09:18N 40°35' W 074°12'1 1.7
2018-Feb-16 08:59N 40°36' W 074°12'4 7.4
2018-Feb-16 08:30N 40°39' W 074°09'1 2.7
2018-Feb-16 08:00N 40°38' W 074°08'0 0.0
2018-Feb-16 07:30N 40°38' W 074°08'0 0.0
2018-Feb-16 07:00N 40°38' W 074°08'0 0.0
2018-Feb-16 06:30N 40°38' W 074°08'0 0.0
2018-Feb-16 06:00N 40°38' W 074°08'1 1.0
2018-Feb-16 05:29N 40°39' W 074°07'3 7.1
2018-Feb-16 05:00N 40°40' W 074°03'1 2.9
2018-Feb-16 04:30N 40°40' W 074°01'0 0.1
2018-Feb-16 04:00N 40°40' W 074°01'0 0.1
2018-Feb-16 03:30N 40°40' W 074°01'0 0.1
2018-Feb-16 03:00N 40°40' W 074°01'3 5.2
2018-Feb-16 02:30N 40°39' W 074°04'3 5.5
2018-Feb-16 02:00N 40°38' W 074°08'1 1.3
2018-Feb-16 01:30N 40°39' W 074°07'0 0.0
2018-Feb-16 00:59N 40°39' W 074°07'1 2.8
2018-Feb-16 00:30N 40°39' W 074°05'4 8.2
2018-Feb-15 23:58N 40°39' W 074°11'4 8.7
2018-Feb-15 23:30N 40°35' W 074°13'3 2.3
2018-Feb-15 22:15N 40°33' W 074°15'1 2.7
2018-Feb-15 22:00N 40°33' W 074°15'2 4.5
2018-Feb-15 21:27N 40°35' W 074°13'1 2.1
2018-Feb-15 20:59N 40°36' W 074°12'1 1.2
2018-Feb-15 20:30N 40°37' W 074°12'0 0.0
2018-Feb-15 20:00N 40°37' W 074°12'0 0.0
2018-Feb-15 19:30N 40°37' W 074°12'0 0.0
2018-Feb-15 18:58N 40°37' W 074°12'0 0.0
2018-Feb-15 18:30N 40°37' W 074°12'0 0.0
2018-Feb-15 17:57N 40°37' W 074°12'3 6.4
2018-Feb-15 17:27N 40°34' W 074°13'2 1.4
2018-Feb-15 16:08N 40°32' W 074°15'3 7.4
2018-Feb-15 15:47N 40°34' W 074°13'2 8.4
2018-Feb-15 15:30N 40°37' W 074°12'  
Track history (hours):
 
Tides and Currents Weather Stations Pressure Air Temp Water Temp Dewpoint Dewpoint Depression Visibility Wind Speed Wind Dir Waves Ship Positions

Franklin Reinauer

Owner: REINAUER TRANSPORTATION CO.LLC., STATEN ISLAND, NY. More information available from US FCC via Universal Licensing System and Coast Guard Vessel Documentation Center.

Last reported at 2018-Feb-25 15:00 UTC. Time now 2018-Feb-25 15:30 UTC.
Position N 40°40' W 074°01'.

Length 24 m; draft 4 m.

Type: Tug. MMSI: 366725230.

Date/timePositionNaut miles runAvg speedWind from/ knotsBaromVisibWave heightAir tempDewpointWater temp
2018-Feb-25 15:00N 40°40' W 074°01'0 0.0
2018-Feb-25 14:30N 40°40' W 074°01'0 0.3
2018-Feb-25 14:00N 40°40' W 074°01'0 0.3
2018-Feb-25 13:30N 40°40' W 074°01'0 0.3
2018-Feb-25 13:00N 40°40' W 074°01'0 0.3
2018-Feb-25 12:30N 40°40' W 074°01'0 0.0
2018-Feb-25 12:00N 40°40' W 074°01'0 0.1
2018-Feb-25 11:30N 40°40' W 074°01'0 0.1
2018-Feb-25 10:59N 40°40' W 074°01'0 0.0
2018-Feb-25 10:29N 40°40' W 074°01'0 0.0
2018-Feb-25 09:59N 40°40' W 074°01'0 0.3
2018-Feb-25 09:30N 40°40' W 074°01'0 0.0
2018-Feb-25 09:00N 40°40' W 074°01'0 0.0
2018-Feb-25 08:30N 40°40' W 074°01'0 0.2
2018-Feb-25 07:58N 40°40' W 074°01'2 3.4
2018-Feb-25 07:30N 40°40' W 074°03'4 7.2
2018-Feb-25 07:00N 40°39' W 074°07'4 6.9
2018-Feb-25 06:30N 40°38' W 074°12'4 8.3
2018-Feb-25 05:59N 40°34' W 074°13'1 0.2
2018-Feb-24 23:46N 40°33' W 074°14'0 0.0
2018-Feb-24 23:28N 40°33' W 074°14'0 0.0
2018-Feb-24 20:36N 40°33' W 074°14'0 0.0
2018-Feb-24 20:27N 40°33' W 074°14'0 0.0
2018-Feb-24 19:58N 40°33' W 074°14'0 0.0
2018-Feb-24 19:27N 40°33' W 074°14'0 0.0
2018-Feb-24 18:58N 40°33' W 074°14'0 0.0
2018-Feb-24 18:30N 40°33' W 074°14'0 0.0
2018-Feb-24 17:58N 40°33' W 074°14'0 0.0
2018-Feb-24 17:29N 40°33' W 074°14'0 0.0
2018-Feb-24 16:58N 40°33' W 074°14'0 0.0
2018-Feb-24 16:27N 40°33' W 074°14'0 0.3
2018-Feb-24 15:59N 40°33' W 074°15'1 1.5
2018-Feb-24 15:29N 40°33' W 074°15'0 0.7
2018-Feb-24 14:59N 40°32' W 074°15'0 0.1
2018-Feb-24 14:30N 40°32' W 074°15'0 0.1
2018-Feb-24 13:52N 40°32' W 074°15'0 0.4
2018-Feb-24 13:23N 40°33' W 074°15'0 1.2
2018-Feb-24 12:59N 40°33' W 074°15'3 5.7
2018-Feb-24 12:30N 40°35' W 074°13'1 0.3
2018-Feb-24 10:36N 40°36' W 074°12'0 0.0
2018-Feb-24 09:12N 40°36' W 074°12'0 0.0
2018-Feb-24 09:00N 40°36' W 074°12'0 0.0
2018-Feb-24 08:30N 40°36' W 074°12'0 0.0
2018-Feb-24 08:00N 40°36' W 074°12'0 0.0
2018-Feb-24 07:30N 40°36' W 074°12'0 0.0
2018-Feb-24 07:00N 40°36' W 074°12'0 0.0
2018-Feb-24 06:30N 40°36' W 074°12'0 0.0
2018-Feb-24 06:00N 40°36' W 074°12'0 0.0
2018-Feb-24 05:30N 40°36' W 074°12'0 0.0
2018-Feb-24 05:00N 40°36' W 074°12'0 0.0
2018-Feb-24 04:30N 40°36' W 074°12'0 0.0
2018-Feb-24 04:00N 40°36' W 074°12'0 0.0
2018-Feb-24 03:30N 40°36' W 074°12'0 0.2
2018-Feb-24 03:00N 40°36' W 074°12'4 7.3
2018-Feb-24 02:30N 40°39' W 074°10'2 4.5
2018-Feb-24 02:00N 40°39' W 074°07'0 0.0
2018-Feb-24 01:30N 40°39' W 074°07'0 0.0
2018-Feb-24 01:00N 40°39' W 074°07'1 1.6
2018-Feb-24 00:30N 40°39' W 074°07'0 0.2
2018-Feb-23 23:16N 40°38' W 074°08'2 6.1
2018-Feb-23 23:00N 40°39' W 074°10'3 6.8
2018-Feb-23 22:30N 40°36' W 074°12'0 0.2
2018-Feb-23 22:00N 40°36' W 074°12'0 0.0
2018-Feb-23 21:30N 40°36' W 074°12'0 0.0
2018-Feb-23 21:00N 40°36' W 074°12'0 0.0
2018-Feb-23 20:30N 40°36' W 074°12'0 0.0
2018-Feb-23 20:00N 40°36' W 074°12'1 1.3
2018-Feb-23 19:30N 40°35' W 074°13'0 0.4
2018-Feb-23 18:59N 40°35' W 074°12'4 7.5
2018-Feb-23 18:30N 40°39' W 074°11'5 8.9
2018-Feb-23 18:00N 40°39' W 074°05'3 6.8
2018-Feb-23 17:30N 40°40' W 074°01'0 0.1
2018-Feb-23 17:00N 40°40' W 074°01'1 1.4
2018-Feb-23 16:30N 40°40' W 074°02'0 0.2
2018-Feb-23 16:00N 40°40' W 074°02'1 1.6
2018-Feb-23 15:30N 40°40' W 074°01'0 0.0
2018-Feb-23 15:00N 40°40' W 074°01'0 0.0
2018-Feb-23 14:30N 40°40' W 074°01'0 0.0
2018-Feb-23 14:00N 40°40' W 074°01'0 0.0
2018-Feb-23 13:30N 40°40' W 074°01'0 0.0
2018-Feb-23 13:00N 40°40' W 074°01'0 0.0
2018-Feb-23 12:30N 40°40' W 074°01'0 0.0
2018-Feb-23 12:00N 40°40' W 074°01'0 0.0
2018-Feb-23 11:30N 40°40' W 074°01'0 0.0
2018-Feb-23 11:00N 40°40' W 074°01'0 0.0
2018-Feb-23 10:30N 40°40' W 074°01'0 0.0
2018-Feb-23 10:00N 40°40' W 074°01'0 0.0
2018-Feb-23 09:30N 40°40' W 074°01'0 0.0
2018-Feb-23 09:00N 40°40' W 074°01'0 0.0
2018-Feb-23 08:30N 40°40' W 074°01'0 0.0
2018-Feb-23 08:00N 40°40' W 074°01'0 0.0
2018-Feb-23 07:30N 40°40' W 074°01'0 0.0
2018-Feb-23 07:00N 40°40' W 074°01'0 0.0
2018-Feb-23 06:30N 40°40' W 074°01'0 0.0
2018-Feb-23 06:00N 40°40' W 074°01'0 0.0
2018-Feb-23 05:30N 40°40' W 074°01'0 0.0
2018-Feb-23 05:00N 40°40' W 074°01'0 0.0
2018-Feb-23 04:30N 40°40' W 074°01'0 0.0
2018-Feb-23 04:00N 40°40' W 074°01'0 0.3
2018-Feb-23 03:30N 40°40' W 074°01'1 1.2
2018-Feb-23 02:59N 40°40' W 074°00'0 0.9
2018-Feb-23 02:28N 40°40' W 074°01'0 0.0
2018-Feb-23 01:58N 40°40' W 074°01'0 0.0
2018-Feb-23 01:28N 40°40' W 074°01'0 0.0
2018-Feb-23 00:58N 40°40' W 074°01'0 0.0
2018-Feb-23 00:28N 40°40' W 074°01'0 0.0
2018-Feb-22 23:58N 40°40' W 074°01'0 0.0
2018-Feb-22 23:28N 40°40' W 074°01'0 0.0
2018-Feb-22 22:58N 40°40' W 074°01'0 0.1
2018-Feb-22 22:29N 40°40' W 074°01'1 1.3
2018-Feb-22 22:00N 40°40' W 074°02'3 6.7
2018-Feb-22 21:30N 40°39' W 074°06'2 3.0
2018-Feb-22 20:58N 40°38' W 074°08'0 0.1
2018-Feb-22 20:28N 40°38' W 074°08'0 0.0
2018-Feb-22 19:58N 40°38' W 074°08'0 0.0
2018-Feb-22 19:28N 40°38' W 074°08'0 0.0
2018-Feb-22 18:58N 40°38' W 074°08'0 0.0
2018-Feb-22 18:28N 40°38' W 074°08'0 0.0
2018-Feb-22 17:55N 40°38' W 074°08'0 0.0
2018-Feb-22 17:25N 40°38' W 074°08'0 0.0
2018-Feb-22 16:58N 40°38' W 074°08'0 0.0
2018-Feb-22 16:28N 40°38' W 074°08'0 0.0
2018-Feb-22 15:58N 40°38' W 074°08'0 0.1
2018-Feb-22 14:46N 40°38' W 074°08'0 0.0
2018-Feb-22 14:07N 40°38' W 074°08'0 0.0
2018-Feb-22 13:37N 40°38' W 074°08'0 0.1
2018-Feb-22 13:30N 40°38' W 074°08'0 0.1
2018-Feb-22 13:00N 40°38' W 074°08'3 6.2
2018-Feb-22 12:30N 40°39' W 074°04'2 4.7
2018-Feb-22 12:00N 40°40' W 074°01'0 0.0
2018-Feb-22 11:30N 40°40' W 074°01'0 0.0
2018-Feb-22 11:00N 40°40' W 074°01'0 0.0
2018-Feb-22 10:30N 40°40' W 074°01'0 0.0
2018-Feb-22 10:00N 40°40' W 074°01'0 0.0
2018-Feb-22 09:30N 40°40' W 074°01'0 0.0
2018-Feb-22 09:00N 40°40' W 074°01'0 0.0
2018-Feb-22 08:30N 40°40' W 074°01'0 0.0
2018-Feb-22 08:00N 40°40' W 074°01'0 0.0
2018-Feb-22 07:30N 40°40' W 074°01'0 0.0
2018-Feb-22 07:00N 40°40' W 074°01'0 0.0
2018-Feb-22 06:30N 40°40' W 074°01'0 0.0
2018-Feb-22 06:00N 40°40' W 074°01'4 7.5
2018-Feb-22 05:30N 40°39' W 074°06'1 1.3
2018-Feb-22 05:00N 40°39' W 074°07'1 1.3
2018-Feb-22 04:30N 40°39' W 074°07'0 0.7
2018-Feb-22 03:58N 40°38' W 074°08'0 0.0
2018-Feb-22 03:28N 40°38' W 074°08'0 0.0
2018-Feb-22 02:58N 40°38' W 074°08'0 0.2
2018-Feb-22 02:31N 40°38' W 074°08'2 4.8
2018-Feb-22 02:00N 40°39' W 074°05'3 6.0
2018-Feb-22 01:30N 40°40' W 074°01'0 0.2
2018-Feb-22 01:00N 40°40' W 074°01'0 0.5
2018-Feb-22 00:31N 40°40' W 074°01'0 0.4
2018-Feb-21 23:59N 40°40' W 074°01'0 0.1
2018-Feb-21 23:29N 40°40' W 074°01'0 0.0
2018-Feb-21 23:01N 40°40' W 074°01'0 0.0
2018-Feb-21 22:31N 40°40' W 074°01'0 0.0
2018-Feb-21 22:01N 40°40' W 074°01'0 0.0
2018-Feb-21 21:31N 40°40' W 074°01'0 0.0
2018-Feb-21 21:01N 40°40' W 074°01'0 0.0
2018-Feb-21 20:31N 40°40' W 074°01'0 0.0
2018-Feb-21 20:00N 40°40' W 074°01'0 0.0
2018-Feb-21 19:31N 40°40' W 074°01'0 0.0
2018-Feb-21 19:00N 40°40' W 074°01'0 0.0
2018-Feb-21 18:31N 40°40' W 074°01'0 0.1
2018-Feb-21 18:00N 40°40' W 074°01'4 7.7
2018-Feb-21 17:30N 40°39' W 074°06'1 1.3
2018-Feb-21 16:59N 40°39' W 074°07'1 2.0
2018-Feb-21 16:30N 40°38' W 074°08'0 0.1
2018-Feb-21 16:00N 40°38' W 074°08'0 0.0
2018-Feb-21 15:27N 40°38' W 074°08'0 0.0
2018-Feb-21 14:50N 40°38' W 074°08'0 0.0
2018-Feb-21 14:25N 40°38' W 074°08'0 0.0
2018-Feb-21 14:01N 40°38' W 074°08'0 0.0
2018-Feb-21 13:30N 40°38' W 074°08'0 0.0
2018-Feb-21 12:59N 40°38' W 074°08'0 0.0
2018-Feb-21 12:28N 40°38' W 074°08'2 3.9
2018-Feb-21 12:01N 40°39' W 074°05'0 0.8
2018-Feb-21 11:30N 40°39' W 074°05'0 0.5
2018-Feb-21 11:00N 40°39' W 074°05'0 0.4
2018-Feb-21 10:30N 40°39' W 074°05'2 4.4
2018-Feb-21 10:01N 40°38' W 074°08'0 0.0
2018-Feb-21 09:30N 40°38' W 074°08'0 0.0
2018-Feb-21 08:59N 40°38' W 074°08'0 0.0
2018-Feb-21 08:30N 40°38' W 074°08'0 0.0
2018-Feb-21 08:00N 40°38' W 074°08'0 0.0
2018-Feb-21 07:30N 40°38' W 074°08'0 0.0
2018-Feb-21 06:59N 40°38' W 074°08'0 0.0
2018-Feb-21 06:30N 40°38' W 074°08'0 0.0
2018-Feb-21 06:00N 40°38' W 074°08'0 0.0
2018-Feb-21 05:30N 40°38' W 074°08'1 2.2
2018-Feb-21 05:00N 40°39' W 074°07'0 0.2
2018-Feb-21 04:30N 40°39' W 074°07'0 0.1
2018-Feb-21 04:00N 40°39' W 074°07'1 1.7
2018-Feb-21 03:25N 40°38' W 074°08'0 0.0
2018-Feb-21 02:55N 40°38' W 074°08'0 0.0
2018-Feb-21 01:46N 40°38' W 074°08'0 0.0
2018-Feb-21 01:28N 40°38' W 074°08'0 0.0
2018-Feb-21 00:58N 40°38' W 074°08'0 0.0
2018-Feb-21 00:16N 40°38' W 074°08'0 0.0
2018-Feb-20 23:58N 40°38' W 074°08'0 0.0
2018-Feb-20 23:27N 40°38' W 074°08'1 2.1
2018-Feb-20 23:00N 40°39' W 074°07'0 0.4
2018-Feb-20 22:30N 40°39' W 074°07'1 1.5
2018-Feb-20 21:59N 40°38' W 074°08'0 0.0
2018-Feb-20 21:30N 40°38' W 074°08'0 0.0
2018-Feb-20 20:58N 40°38' W 074°08'0 0.0
2018-Feb-20 20:30N 40°38' W 074°08'0 0.0
2018-Feb-20 20:00N 40°38' W 074°08'0 0.0
2018-Feb-20 19:29N 40°38' W 074°08'0 0.0
2018-Feb-20 19:00N 40°38' W 074°08'4 6.8
2018-Feb-20 18:29N 40°37' W 074°12'1 1.5
2018-Feb-20 17:55N 40°37' W 074°12'1 1.8
2018-Feb-20 17:28N 40°36' W 074°12'0 0.0
2018-Feb-20 16:39N 40°36' W 074°12'1 6.4
2018-Feb-20 16:30N 40°37' W 074°12'3 6.5
2018-Feb-20 15:59N 40°39' W 074°09'4 7.6
2018-Feb-20 15:31N 40°42' W 074°07'1 1.0
2018-Feb-20 15:00N 40°43' W 074°07'0 0.1
2018-Feb-20 14:29N 40°43' W 074°07'0 0.2
2018-Feb-20 14:00N 40°43' W 074°07'4 7.5
2018-Feb-20 13:28N 40°39' W 074°09'1 3.1
2018-Feb-20 13:00N 40°39' W 074°07'0 0.2
2018-Feb-20 12:30N 40°39' W 074°07'4 7.8
2018-Feb-20 12:00N 40°40' W 074°02'1 1.9
2018-Feb-20 11:30N 40°40' W 074°01'0 0.0
2018-Feb-20 11:00N 40°40' W 074°01'0 0.0
2018-Feb-20 10:30N 40°40' W 074°01'0 0.0
2018-Feb-20 10:00N 40°40' W 074°01'0 0.0
2018-Feb-20 09:30N 40°40' W 074°01'0 0.0
2018-Feb-20 09:00N 40°40' W 074°01'0 0.0
2018-Feb-20 08:30N 40°40' W 074°01'0 0.0
2018-Feb-20 08:00N 40°40' W 074°01'0 0.0
2018-Feb-20 07:29N 40°40' W 074°01'0 0.0
2018-Feb-20 07:00N 40°40' W 074°01'0 0.0
2018-Feb-20 06:30N 40°40' W 074°01'0 0.0
2018-Feb-20 06:00N 40°40' W 074°01'0 0.0
2018-Feb-20 05:30N 40°40' W 074°01'0 0.0
2018-Feb-20 05:00N 40°40' W 074°01'0 0.0
2018-Feb-20 04:30N 40°40' W 074°01'0 0.0
2018-Feb-20 04:00N 40°40' W 074°01'0 0.0
2018-Feb-20 03:30N 40°40' W 074°01'0 0.0
2018-Feb-20 03:00N 40°40' W 074°01'0 0.0
2018-Feb-20 02:30N 40°40' W 074°01'0 0.0
2018-Feb-20 02:00N 40°40' W 074°01'0 0.0
2018-Feb-20 01:30N 40°40' W 074°01'0 0.0
2018-Feb-20 01:00N 40°40' W 074°01'0 0.0
2018-Feb-20 00:30N 40°40' W 074°01'0 0.0
2018-Feb-19 23:59N 40°40' W 074°01'0 0.0
2018-Feb-19 23:29N 40°40' W 074°01'0 0.3
2018-Feb-19 23:00N 40°40' W 074°01'0 0.0
2018-Feb-19 22:30N 40°40' W 074°01'0 0.0
2018-Feb-19 22:00N 40°40' W 074°01'0 0.0
2018-Feb-19 21:30N 40°40' W 074°01'0 0.0
2018-Feb-19 21:00N 40°40' W 074°01'0 0.0
2018-Feb-19 20:30N 40°40' W 074°01'0 0.0
2018-Feb-19 20:00N 40°40' W 074°01'0 0.0
2018-Feb-19 19:27N 40°40' W 074°01'0 0.0
2018-Feb-19 19:00N 40°40' W 074°01'0 0.0
2018-Feb-19 18:30N 40°40' W 074°01'0 0.0
2018-Feb-19 18:00N 40°40' W 074°01'0 0.0
2018-Feb-19 17:30N 40°40' W 074°01'0 0.0
2018-Feb-19 17:00N 40°40' W 074°01'0 0.0
2018-Feb-19 16:30N 40°40' W 074°01'0 0.0
2018-Feb-19 16:00N 40°40' W 074°01'0 0.0
2018-Feb-19 15:30N 40°40' W 074°01'0 0.0
2018-Feb-19 15:00N 40°40' W 074°01'0 0.0
2018-Feb-19 14:30N 40°40' W 074°01'0 0.0
2018-Feb-19 14:00N 40°40' W 074°01'0 0.0
2018-Feb-19 13:30N 40°40' W 074°01'0 0.0
2018-Feb-19 13:00N 40°40' W 074°01'0 0.0
2018-Feb-19 12:30N 40°40' W 074°01'0 0.0
2018-Feb-19 12:00N 40°40' W 074°01'0 0.0
2018-Feb-19 11:30N 40°40' W 074°01'0 0.0
2018-Feb-19 11:00N 40°40' W 074°01'0 0.3
2018-Feb-19 10:30N 40°40' W 074°01'0 0.4
2018-Feb-19 10:00N 40°40' W 074°01'0 0.2
2018-Feb-19 09:30N 40°40' W 074°01'0 0.0
2018-Feb-19 09:00N 40°40' W 074°01'0 0.2
2018-Feb-19 08:30N 40°40' W 074°01'3 5.7
2018-Feb-19 07:59N 40°43' W 073°59'611.9
2018-Feb-19 07:30N 40°48' W 073°55'510.0
2018-Feb-19 07:00N 40°48' W 073°48'3 0.1
2018-Feb-17 23:46N 40°51' W 073°46'2 7.7
2018-Feb-17 23:28N 40°48' W 073°47'4 7.8
2018-Feb-17 23:00N 40°48' W 073°51'4 7.6
2018-Feb-17 22:30N 40°47' W 073°56'3 6.9
2018-Feb-17 22:00N 40°44' W 073°58'3 6.2
2018-Feb-17 21:30N 40°41' W 074°01'3 6.1
2018-Feb-17 21:00N 40°39' W 074°04'2 4.1
2018-Feb-17 20:29N 40°39' W 074°07'1 1.4
2018-Feb-17 19:58N 40°38' W 074°08'0 0.0
2018-Feb-17 19:30N 40°38' W 074°08'2 3.4
2018-Feb-17 19:00N 40°39' W 074°06'4 7.9
2018-Feb-17 18:30N 40°40' W 074°01'0 0.4
2018-Feb-17 18:00N 40°40' W 074°01'0 0.5
2018-Feb-17 17:30N 40°40' W 074°01'0 0.0
2018-Feb-17 17:00N 40°40' W 074°01'0 0.0
2018-Feb-17 16:30N 40°40' W 074°01'0 0.4
2018-Feb-17 16:00N 40°40' W 074°01'3 5.2
2018-Feb-17 15:30N 40°39' W 074°04'3 5.4
2018-Feb-17 15:00N 40°38' W 074°08'0 0.1
2018-Feb-17 14:30N 40°38' W 074°08'0 0.0
2018-Feb-17 14:00N 40°38' W 074°08'0 0.0
2018-Feb-17 13:30N 40°38' W 074°08'0 0.0
2018-Feb-17 13:00N 40°38' W 074°08'0 0.0
2018-Feb-17 12:29N 40°38' W 074°08'0 0.0
2018-Feb-17 12:00N 40°38' W 074°08'0 0.0
2018-Feb-17 11:22N 40°38' W 074°08'0 0.0
2018-Feb-17 10:59N 40°38' W 074°08'0 0.0
2018-Feb-17 10:27N 40°38' W 074°08'0 0.0
2018-Feb-17 10:00N 40°38' W 074°08'0 0.0
2018-Feb-17 09:30N 40°38' W 074°08'0 0.0
2018-Feb-17 09:00N 40°38' W 074°08'0 0.0
2018-Feb-17 08:30N 40°38' W 074°08'0 0.6
2018-Feb-17 08:00N 40°39' W 074°07'0 0.7
2018-Feb-17 07:29N 40°39' W 074°07'0 0.0
2018-Feb-17 06:57N 40°39' W 074°07'1 3.0
2018-Feb-17 06:30N 40°39' W 074°05'3 6.8
2018-Feb-17 06:00N 40°40' W 074°01'0 0.0
2018-Feb-17 05:30N 40°40' W 074°01'0 0.0
2018-Feb-17 05:00N 40°40' W 074°01'0 0.0
2018-Feb-17 04:30N 40°40' W 074°01'0 0.0
2018-Feb-17 04:00N 40°40' W 074°01'0 0.0
2018-Feb-17 03:30N 40°40' W 074°01'0 0.0
2018-Feb-17 03:00N 40°40' W 074°01'1 1.0
2018-Feb-17 02:30N 40°40' W 074°00'1 1.1
2018-Feb-17 02:00N 40°40' W 074°01'3 6.3
2018-Feb-17 01:30N 40°39' W 074°05'0 0.8
2018-Feb-17 01:00N 40°39' W 074°05'3 5.8
2018-Feb-17 00:31N 40°40' W 074°01'4 7.9
2018-Feb-17 00:00N 40°39' W 074°06'4 8.5
2018-Feb-16 23:30N 40°38' W 074°12'6 2.6
2018-Feb-16 21:02N 40°33' W 074°15'0 0.0
2018-Feb-16 21:00N 40°33' W 074°15'0 0.0
2018-Feb-16 20:30N 40°33' W 074°15'0 0.0
2018-Feb-16 20:00N 40°33' W 074°15'0 0.0
2018-Feb-16 19:28N 40°33' W 074°15'0 0.0
2018-Feb-16 18:59N 40°33' W 074°15'1 0.5
2018-Feb-16 17:23N 40°33' W 074°14'0 0.0
2018-Feb-16 16:46N 40°33' W 074°14'0 0.0
2018-Feb-16 16:10N 40°33' W 074°14'0 0.0
2018-Feb-16 15:58N 40°33' W 074°14'1 1.0
2018-Feb-16 14:58N 40°33' W 074°15'0 0.5
2018-Feb-16 14:28N 40°33' W 074°15'0 0.9
2018-Feb-16 14:00N 40°33' W 074°15'0 0.0
2018-Feb-16 13:30N 40°33' W 074°15'0 0.0
2018-Feb-16 12:57N 40°33' W 074°15'0 0.0
2018-Feb-16 12:29N 40°33' W 074°15'0 0.0
2018-Feb-16 11:27N 40°33' W 074°15'1 0.9
2018-Feb-16 10:27N 40°32' W 074°15'3 6.5
2018-Feb-16 09:59N 40°35' W 074°13'1 1.4
2018-Feb-16 09:18N 40°35' W 074°12'1 1.7
2018-Feb-16 08:59N 40°36' W 074°12'4 7.4
2018-Feb-16 08:30N 40°39' W 074°09'1 2.7
2018-Feb-16 08:00N 40°38' W 074°08'0 0.0
2018-Feb-16 07:30N 40°38' W 074°08'0 0.0
2018-Feb-16 07:00N 40°38' W 074°08'0 0.0
2018-Feb-16 06:30N 40°38' W 074°08'0 0.0
2018-Feb-16 06:00N 40°38' W 074°08'1 1.0
2018-Feb-16 05:29N 40°39' W 074°07'3 7.1
2018-Feb-16 05:00N 40°40' W 074°03'1 2.9
2018-Feb-16 04:30N 40°40' W 074°01'0 0.1
2018-Feb-16 04:00N 40°40' W 074°01'0 0.1
2018-Feb-16 03:30N 40°40' W 074°01'0 0.1
2018-Feb-16 03:00N 40°40' W 074°01'3 5.2
2018-Feb-16 02:30N 40°39' W 074°04'3 5.5
2018-Feb-16 02:00N 40°38' W 074°08'1 1.3
2018-Feb-16 01:30N 40°39' W 074°07'0 0.0
2018-Feb-16 00:59N 40°39' W 074°07'1 2.8
2018-Feb-16 00:30N 40°39' W 074°05'4 8.2
2018-Feb-15 23:58N 40°39' W 074°11'4 8.7
2018-Feb-15 23:30N 40°35' W 074°13'3 2.3
2018-Feb-15 22:15N 40°33' W 074°15'1 2.7
2018-Feb-15 22:00N 40°33' W 074°15'2 4.5
2018-Feb-15 21:27N 40°35' W 074°13'1 2.1
2018-Feb-15 20:59N 40°36' W 074°12'1 1.2
2018-Feb-15 20:30N 40°37' W 074°12'0 0.0
2018-Feb-15 20:00N 40°37' W 074°12'0 0.0
2018-Feb-15 19:30N 40°37' W 074°12'0 0.0
2018-Feb-15 18:58N 40°37' W 074°12'0 0.0
2018-Feb-15 18:30N 40°37' W 074°12'0 0.0
2018-Feb-15 17:57N 40°37' W 074°12'3 6.4
2018-Feb-15 17:27N 40°34' W 074°13'2 1.4
2018-Feb-15 16:08N 40°32' W 074°15'3 7.4
2018-Feb-15 15:47N 40°34' W 074°13'2 8.4
2018-Feb-15 15:30N 40°37' W 074°12'  

Dump ship's entire track history